Check out our new PWSWeather beta!
PWSweather.com
Personal Weather Stations
Station Observations
KMDSOLOM1
solomons, Solomons, MD 20688

solomonsSolomons, MD 20688

Lat: 38.32, Lon: -76.45

Elevation: 5

Station Type:

http://www.act-us.info/weather

High Low Average
Temperature 60.5°F15.8°C 39.0°F3.9°C 49.4°F9.7°C
Dew Point 54.7°F12.6°C 37.4°F3.0°C 46.6°F8.1°C
Winds 18.0 mph 29.0 kmh Calm Calm 5.0 mph SE8.0 kmh SE
Wind Gusts 22.0 mph35.4 kmh -- 8.0 mph12.9 kmh
Humidity 97% 80% 90%
Pressure 30.14 in1020.7 mb 29.83 in1010.2 mb -
Precipitation 0.00 in0.0 mm - -
Hour Temp Dew Point Humidity Winds Wind Gusts Pressure Precip Precip Rate Daily Precip Total
12:00 AM 39.0°F3.9°C 37.4°F3.0°C 94% 18.0 mph NNE29.0 kmh NNE 22.0 mph35.4 kmh 30.11 in1019.6 mb 0.05 in1.3 mm 0.00 in0.0 mm 0.05 in1.3 mm
12:05 AM 39.1°F3.9°C 37.5°F3.1°C 94% 11.0 mph NE17.7 kmh NE 22.0 mph35.4 kmh 30.12 in1020.0 mb 0.05 in1.3 mm 0.00 in0.0 mm 0.05 in1.3 mm
12:10 AM 39.1°F3.9°C 37.5°F3.1°C 94% 10.0 mph NE16.1 kmh NE 15.0 mph24.1 kmh 30.12 in1020.0 mb 0.05 in1.3 mm 0.00 in0.0 mm 0.05 in1.3 mm
12:15 AM 39.1°F3.9°C 37.5°F3.1°C 94% 10.0 mph NE16.1 kmh NE 15.0 mph24.1 kmh 30.13 in1020.3 mb 0.05 in1.3 mm 0.00 in0.0 mm 0.05 in1.3 mm
12:20 AM 39.2°F4.0°C 37.6°F3.1°C 94% 7.0 mph NE11.3 kmh NE 15.0 mph24.1 kmh 30.14 in1020.7 mb 0.05 in1.3 mm 0.00 in0.0 mm 0.05 in1.3 mm
12:25 AM 39.2°F4.0°C 37.6°F3.1°C 94% 9.0 mph NE14.5 kmh NE 9.0 mph14.5 kmh 30.13 in1020.3 mb 0.05 in1.3 mm 0.00 in0.0 mm 0.05 in1.3 mm
12:30 AM 39.3°F4.1°C 37.7°F3.2°C 94% 8.0 mph NE12.9 kmh NE 10.0 mph16.1 kmh 30.13 in1020.3 mb 0.05 in1.3 mm 0.00 in0.0 mm 0.05 in1.3 mm
12:35 AM 39.4°F4.1°C 37.8°F3.2°C 94% 8.0 mph NE12.9 kmh NE 10.0 mph16.1 kmh 30.12 in1020.0 mb 0.05 in1.3 mm 0.00 in0.0 mm 0.05 in1.3 mm
12:40 AM 39.4°F4.1°C 37.8°F3.2°C 94% 8.0 mph NNE12.9 kmh NNE 8.0 mph12.9 kmh 30.12 in1020.0 mb 0.01 in0.3 mm 0.00 in0.0 mm 0.05 in1.3 mm
12:45 AM 39.5°F4.2°C 37.9°F3.3°C 94% 6.0 mph NE9.7 kmh NE 10.0 mph16.1 kmh 30.12 in1020.0 mb 0.01 in0.3 mm 0.00 in0.0 mm 0.05 in1.3 mm
12:50 AM 39.5°F4.2°C 37.9°F3.3°C 94% 8.0 mph NE12.9 kmh NE 10.0 mph16.1 kmh 30.12 in1020.0 mb 0.02 in0.5 mm 0.12 in3.0 mm 0.06 in1.5 mm
12:55 AM 39.6°F4.2°C 38.0°F3.3°C 94% 8.0 mph NNE12.9 kmh NNE 9.0 mph14.5 kmh 30.12 in1020.0 mb 0.02 in0.5 mm 0.00 in0.0 mm 0.06 in1.5 mm
01:00 AM 39.6°F4.2°C 38.0°F3.3°C 94% 9.0 mph NNE14.5 kmh NNE 10.0 mph16.1 kmh 30.11 in1019.6 mb 0.02 in0.5 mm 0.00 in0.0 mm 0.06 in1.5 mm
01:05 AM 39.7°F4.3°C 38.4°F3.6°C 95% 10.0 mph NNE16.1 kmh NNE 11.0 mph17.7 kmh 30.10 in1019.3 mb 0.03 in0.8 mm 0.12 in3.0 mm 0.07 in1.8 mm
01:10 AM 39.6°F4.2°C 38.3°F3.5°C 95% 9.0 mph NNE14.5 kmh NNE 10.0 mph16.1 kmh 30.10 in1019.3 mb 0.03 in0.8 mm 0.00 in0.0 mm 0.07 in1.8 mm
01:15 AM 39.7°F4.3°C 38.4°F3.6°C 95% 9.0 mph NE14.5 kmh NE 10.0 mph16.1 kmh 30.10 in1019.3 mb 0.03 in0.8 mm 0.00 in0.0 mm 0.07 in1.8 mm
01:20 AM 39.7°F4.3°C 38.4°F3.6°C 95% 10.0 mph NNE16.1 kmh NNE 10.0 mph16.1 kmh 30.09 in1019.0 mb 0.03 in0.8 mm 0.00 in0.0 mm 0.07 in1.8 mm
01:25 AM 39.7°F4.3°C 38.4°F3.6°C 95% 9.0 mph NE14.5 kmh NE 11.0 mph17.7 kmh 30.09 in1019.0 mb 0.03 in0.8 mm 0.00 in0.0 mm 0.07 in1.8 mm
01:30 AM 39.8°F4.3°C 38.5°F3.6°C 95% 10.0 mph NE16.1 kmh NE 12.0 mph19.3 kmh 30.08 in1018.6 mb 0.03 in0.8 mm 0.00 in0.0 mm 0.07 in1.8 mm
01:35 AM 39.9°F4.4°C 38.6°F3.7°C 95% 10.0 mph NE16.1 kmh NE 12.0 mph19.3 kmh 30.09 in1019.0 mb 0.03 in0.8 mm 0.00 in0.0 mm 0.07 in1.8 mm
01:40 AM 39.9°F4.4°C 38.6°F3.7°C 95% 7.0 mph NE11.3 kmh NE 10.0 mph16.1 kmh 30.08 in1018.6 mb 0.03 in0.8 mm 0.00 in0.0 mm 0.07 in1.8 mm
01:45 AM 40.0°F4.4°C 38.7°F3.7°C 95% 7.0 mph NE11.3 kmh NE 12.0 mph19.3 kmh 30.09 in1019.0 mb 0.03 in0.8 mm 0.00 in0.0 mm 0.07 in1.8 mm
01:50 AM 40.1°F4.5°C 38.8°F3.8°C 95% 9.0 mph NE14.5 kmh NE 12.0 mph19.3 kmh 30.09 in1019.0 mb 0.03 in0.8 mm 0.00 in0.0 mm 0.07 in1.8 mm
01:55 AM 40.0°F4.4°C 38.7°F3.7°C 95% 9.0 mph NE14.5 kmh NE 10.0 mph16.1 kmh 30.08 in1018.6 mb 0.02 in0.5 mm 0.00 in0.0 mm 0.07 in1.8 mm
02:00 AM 40.1°F4.5°C 38.8°F3.8°C 95% 6.0 mph NE9.7 kmh NE 10.0 mph16.1 kmh 30.08 in1018.6 mb 0.04 in1.0 mm 0.02 in0.5 mm 0.09 in2.3 mm
02:05 AM 40.1°F4.5°C 39.1°F3.9°C 96% 5.0 mph NE8.0 kmh NE 10.0 mph16.1 kmh 30.09 in1019.0 mb 0.05 in1.3 mm 0.12 in3.0 mm 0.10 in2.5 mm
02:10 AM 40.2°F4.6°C 38.9°F3.8°C 95% 4.0 mph NE6.4 kmh NE 5.0 mph8.0 kmh 30.09 in1019.0 mb 0.02 in0.5 mm 0.00 in0.0 mm 0.10 in2.5 mm
02:15 AM 40.2°F4.6°C 39.2°F4.0°C 96% 4.0 mph NE6.4 kmh NE 5.0 mph8.0 kmh 30.08 in1018.6 mb 0.04 in1.0 mm 0.24 in6.1 mm 0.12 in3.0 mm
02:20 AM 40.4°F4.7°C 39.4°F4.1°C 96% 6.0 mph NE9.7 kmh NE 7.0 mph11.3 kmh 30.08 in1018.6 mb 0.05 in1.3 mm 0.12 in3.0 mm 0.13 in3.3 mm
02:25 AM 40.4°F4.7°C 39.4°F4.1°C 96% 6.0 mph NE9.7 kmh NE 7.0 mph11.3 kmh 30.07 in1018.3 mb 0.06 in1.5 mm 0.12 in3.0 mm 0.14 in3.6 mm
02:30 AM 40.5°F4.7°C 39.5°F4.2°C 96% 10.0 mph NNE16.1 kmh NNE 10.0 mph16.1 kmh 30.05 in1017.6 mb 0.07 in1.8 mm 0.12 in3.0 mm 0.15 in3.8 mm
02:35 AM 40.5°F4.7°C 39.5°F4.2°C 96% 9.0 mph NNE14.5 kmh NNE 11.0 mph17.7 kmh 30.06 in1017.9 mb 0.07 in1.8 mm 0.00 in0.0 mm 0.15 in3.8 mm
02:40 AM 40.6°F4.8°C 39.6°F4.2°C 96% 6.0 mph NE9.7 kmh NE 8.0 mph12.9 kmh 30.06 in1017.9 mb 0.06 in1.5 mm 0.00 in0.0 mm 0.15 in3.8 mm
02:45 AM 40.7°F4.8°C 39.7°F4.3°C 96% 4.0 mph NE6.4 kmh NE 8.0 mph12.9 kmh 30.07 in1018.3 mb 0.07 in1.8 mm 0.12 in3.0 mm 0.16 in4.1 mm
02:50 AM 40.8°F4.9°C 39.8°F4.3°C 96% 6.0 mph NE9.7 kmh NE 8.0 mph12.9 kmh 30.07 in1018.3 mb 0.08 in2.0 mm 0.12 in3.0 mm 0.17 in4.3 mm
02:55 AM 41.0°F5.0°C 40.0°F4.4°C 96% 3.0 mph NE4.8 kmh NE 5.0 mph8.0 kmh 30.08 in1018.6 mb 0.09 in2.3 mm 0.12 in3.0 mm 0.18 in4.6 mm
03:00 AM 41.3°F5.2°C 40.3°F4.6°C 96% 10.0 mph NE16.1 kmh NE 10.0 mph16.1 kmh 30.07 in1018.3 mb 0.10 in2.5 mm 0.01 in0.3 mm 0.19 in4.8 mm
03:05 AM 41.7°F5.4°C 40.7°F4.8°C 96% 6.0 mph NE9.7 kmh NE 12.0 mph19.3 kmh 30.06 in1017.9 mb 0.11 in2.8 mm 0.12 in3.0 mm 0.20 in5.1 mm
03:10 AM 42.0°F5.6°C 40.9°F4.9°C 96% 7.0 mph NE11.3 kmh NE 11.0 mph17.7 kmh 30.06 in1017.9 mb 0.11 in2.8 mm 0.00 in0.0 mm 0.20 in5.1 mm
03:15 AM 42.3°F5.7°C 41.2°F5.1°C 96% 7.0 mph NE11.3 kmh NE 13.0 mph20.9 kmh 30.06 in1017.9 mb 0.12 in3.0 mm 0.12 in3.0 mm 0.21 in5.3 mm
03:20 AM 42.3°F5.7°C 41.2°F5.1°C 96% 9.0 mph NE14.5 kmh NE 13.0 mph20.9 kmh 30.05 in1017.6 mb 0.13 in3.3 mm 0.12 in3.0 mm 0.22 in5.6 mm
03:25 AM 42.3°F5.7°C 41.2°F5.1°C 96% 5.0 mph NE8.0 kmh NE 9.0 mph14.5 kmh 30.05 in1017.6 mb 0.10 in2.5 mm 0.00 in0.0 mm 0.22 in5.6 mm
03:30 AM 42.3°F5.7°C 41.2°F5.1°C 96% 10.0 mph NE16.1 kmh NE 11.0 mph17.7 kmh 30.04 in1017.3 mb 0.11 in2.8 mm 0.12 in3.0 mm 0.23 in5.8 mm
03:35 AM 42.3°F5.7°C 41.2°F5.1°C 96% 11.0 mph NE17.7 kmh NE 12.0 mph19.3 kmh 30.03 in1016.9 mb 0.11 in2.8 mm 0.00 in0.0 mm 0.23 in5.8 mm
03:40 AM 42.4°F5.8°C 41.3°F5.2°C 96% 10.0 mph NE16.1 kmh NE 13.0 mph20.9 kmh 30.03 in1016.9 mb 0.10 in2.5 mm 0.00 in0.0 mm 0.23 in5.8 mm
03:45 AM 42.4°F5.8°C 41.3°F5.2°C 96% 13.0 mph NE20.9 kmh NE 14.0 mph22.5 kmh 30.03 in1016.9 mb 0.11 in2.8 mm 0.12 in3.0 mm 0.24 in6.1 mm
03:50 AM 42.3°F5.7°C 41.2°F5.1°C 96% 10.0 mph NE16.1 kmh NE 14.0 mph22.5 kmh 30.03 in1016.9 mb 0.12 in3.0 mm 0.12 in3.0 mm 0.25 in6.4 mm
03:55 AM 42.3°F5.7°C 41.2°F5.1°C 96% 11.0 mph NE17.7 kmh NE 12.0 mph19.3 kmh 30.03 in1016.9 mb 0.09 in2.3 mm 0.00 in0.0 mm 0.25 in6.4 mm
04:00 AM 42.4°F5.8°C 41.3°F5.2°C 96% 13.0 mph NE20.9 kmh NE 14.0 mph22.5 kmh 30.02 in1016.6 mb 0.09 in2.3 mm 0.00 in0.0 mm 0.25 in6.4 mm
04:05 AM 42.3°F5.7°C 41.2°F5.1°C 96% 9.0 mph NE14.5 kmh NE 15.0 mph24.1 kmh 30.02 in1016.6 mb 0.09 in2.3 mm 0.00 in0.0 mm 0.25 in6.4 mm
04:10 AM 42.3°F5.7°C 41.2°F5.1°C 96% 13.0 mph NE20.9 kmh NE 13.0 mph20.9 kmh 30.00 in1015.9 mb 0.06 in1.5 mm 0.00 in0.0 mm 0.25 in6.4 mm
04:15 AM 42.3°F5.7°C 41.2°F5.1°C 96% 10.0 mph NE16.1 kmh NE 14.0 mph22.5 kmh 30.00 in1015.9 mb 0.06 in1.5 mm 0.00 in0.0 mm 0.25 in6.4 mm
04:20 AM 42.3°F5.7°C 41.2°F5.1°C 96% 11.0 mph NE17.7 kmh NE 14.0 mph22.5 kmh 30.00 in1015.9 mb 0.06 in1.5 mm 0.00 in0.0 mm 0.25 in6.4 mm
04:25 AM 42.3°F5.7°C 41.2°F5.1°C 96% 9.0 mph NE14.5 kmh NE 11.0 mph17.7 kmh 30.01 in1016.3 mb 0.04 in1.0 mm 0.00 in0.0 mm 0.25 in6.4 mm
04:30 AM 42.3°F5.7°C 41.2°F5.1°C 96% 12.0 mph NE19.3 kmh NE 13.0 mph20.9 kmh 30.00 in1015.9 mb 0.04 in1.0 mm 0.00 in0.0 mm 0.25 in6.4 mm
04:35 AM 42.3°F5.7°C 41.2°F5.1°C 96% 11.0 mph NE17.7 kmh NE 13.0 mph20.9 kmh 30.00 in1015.9 mb 0.04 in1.0 mm 0.00 in0.0 mm 0.25 in6.4 mm
04:40 AM 42.3°F5.7°C 41.2°F5.1°C 96% 10.0 mph NE16.1 kmh NE 10.0 mph16.1 kmh 30.00 in1015.9 mb 0.03 in0.8 mm 0.00 in0.0 mm 0.25 in6.4 mm
04:45 AM 42.2°F5.7°C 41.1°F5.1°C 96% 11.0 mph NE17.7 kmh NE 13.0 mph20.9 kmh 30.00 in1015.9 mb 0.03 in0.8 mm 0.00 in0.0 mm 0.25 in6.4 mm
04:50 AM 42.0°F5.6°C 40.9°F4.9°C 96% 11.0 mph NE17.7 kmh NE 13.0 mph20.9 kmh 30.00 in1015.9 mb 0.03 in0.8 mm 0.00 in0.0 mm 0.25 in6.4 mm
04:55 AM 41.8°F5.4°C 40.8°F4.9°C 96% 12.0 mph NE19.3 kmh NE 12.0 mph19.3 kmh 30.00 in1015.9 mb 0.01 in0.3 mm 0.00 in0.0 mm 0.25 in6.4 mm
05:00 AM 41.8°F5.4°C 40.8°F4.9°C 96% 9.0 mph NE14.5 kmh NE 12.0 mph19.3 kmh 30.00 in1015.9 mb 0.01 in0.3 mm 0.00 in0.0 mm 0.25 in6.4 mm
05:05 AM 41.8°F5.4°C 40.8°F4.9°C 96% 7.0 mph NE11.3 kmh NE 12.0 mph19.3 kmh 30.00 in1015.9 mb 0.01 in0.3 mm 0.00 in0.0 mm 0.25 in6.4 mm
05:10 AM 41.9°F5.5°C 41.1°F5.1°C 97% 7.0 mph NE11.3 kmh NE 10.0 mph16.1 kmh 29.99 in1015.6 mb 0.01 in0.3 mm 0.00 in0.0 mm 0.25 in6.4 mm
05:15 AM 41.9°F5.5°C 41.1°F5.1°C 97% 9.0 mph NE14.5 kmh NE 11.0 mph17.7 kmh 30.00 in1015.9 mb 0.01 in0.3 mm 0.00 in0.0 mm 0.25 in6.4 mm
05:20 AM 42.0°F5.6°C 41.2°F5.1°C 97% 9.0 mph NE14.5 kmh NE 11.0 mph17.7 kmh 29.99 in1015.6 mb 0.01 in0.3 mm 0.00 in0.0 mm 0.25 in6.4 mm
05:25 AM 42.2°F5.7°C 41.4°F5.2°C 97% 10.0 mph NNE16.1 kmh NNE 11.0 mph17.7 kmh 29.99 in1015.6 mb 0.01 in0.3 mm 0.00 in0.0 mm 0.25 in6.4 mm
05:30 AM 42.2°F5.7°C 41.4°F5.2°C 97% 8.0 mph NNE12.9 kmh NNE 11.0 mph17.7 kmh 29.99 in1015.6 mb 0.01 in0.3 mm 0.00 in0.0 mm 0.25 in6.4 mm
05:35 AM 42.3°F5.7°C 41.5°F5.3°C 97% 4.0 mph NNE6.4 kmh NNE 11.0 mph17.7 kmh 29.99 in1015.6 mb 0.01 in0.3 mm 0.00 in0.0 mm 0.25 in6.4 mm
05:40 AM 42.3°F5.7°C 41.5°F5.3°C 97% 5.0 mph NNE8.0 kmh NNE 6.0 mph9.7 kmh 29.99 in1015.6 mb 0.01 in0.3 mm 0.00 in0.0 mm 0.25 in6.4 mm
05:45 AM 42.3°F5.7°C 41.5°F5.3°C 97% 5.0 mph NNE8.0 kmh NNE 6.0 mph9.7 kmh 29.99 in1015.6 mb 0.01 in0.3 mm 0.00 in0.0 mm 0.25 in6.4 mm
05:50 AM 42.3°F5.7°C 41.5°F5.3°C 97% 4.0 mph NNE6.4 kmh NNE 6.0 mph9.7 kmh 29.99 in1015.6 mb 0.01 in0.3 mm 0.00 in0.0 mm 0.25 in6.4 mm
05:55 AM 42.3°F5.7°C 41.5°F5.3°C 97% 2.0 mph NNE3.2 kmh NNE 4.0 mph6.4 kmh 29.99 in1015.6 mb 0.00 in0.0 mm 0.00 in0.0 mm 0.25 in6.4 mm
06:00 AM 42.3°F5.7°C 41.5°F5.3°C 97% 2.0 mph NNE3.2 kmh NNE 4.0 mph6.4 kmh 29.99 in1015.6 mb 0.00 in0.0 mm 0.00 in0.0 mm 0.25 in6.4 mm
06:05 AM 42.2°F5.7°C 41.4°F5.2°C 97% Calm Calm 4.0 mph6.4 kmh 29.99 in1015.6 mb 0.00 in0.0 mm 0.00 in0.0 mm 0.25 in6.4 mm
06:10 AM 42.2°F5.7°C 41.1°F5.1°C 96% 1.0 mph NNE1.6 kmh NNE 1.0 mph1.6 kmh 29.99 in1015.6 mb 0.00 in0.0 mm 0.00 in0.0 mm 0.25 in6.4 mm
06:15 AM 42.2°F5.7°C 41.4°F5.2°C 97% Calm Calm 2.0 mph3.2 kmh 29.99 in1015.6 mb 0.00 in0.0 mm 0.00 in0.0 mm 0.25 in6.4 mm
06:20 AM 42.1°F5.6°C 41.3°F5.2°C 97% 1.0 mph NNE1.6 kmh NNE 2.0 mph3.2 kmh 29.98 in1015.2 mb 0.00 in0.0 mm 0.00 in0.0 mm 0.25 in6.4 mm
06:25 AM 42.1°F5.6°C 41.3°F5.2°C 97% Calm Calm -- 29.98 in1015.2 mb 0.00 in0.0 mm 0.00 in0.0 mm 0.25 in6.4 mm
06:30 AM 42.1°F5.6°C 41.3°F5.2°C 97% Calm Calm -- 29.99 in1015.6 mb 0.00 in0.0 mm 0.00 in0.0 mm 0.25 in6.4 mm
06:35 AM 42.0°F5.6°C 41.2°F5.1°C 97% Calm Calm -- 29.99 in1015.6 mb 0.00 in0.0 mm 0.00 in0.0 mm 0.25 in6.4 mm
06:40 AM 42.1°F5.6°C 41.3°F5.2°C 97% Calm Calm 1.0 mph1.6 kmh 29.98 in1015.2 mb 0.00 in0.0 mm 0.00 in0.0 mm 0.25 in6.4 mm
06:45 AM 42.2°F5.7°C 41.4°F5.2°C 97% 1.0 mph NNE1.6 kmh NNE 3.0 mph4.8 kmh 29.98 in1015.2 mb 0.00 in0.0 mm 0.00 in0.0 mm 0.25 in6.4 mm
06:50 AM 42.2°F5.7°C 41.4°F5.2°C 97% 1.0 mph NNE1.6 kmh NNE 3.0 mph4.8 kmh 29.97 in1014.9 mb 0.00 in0.0 mm 0.00 in0.0 mm 0.25 in6.4 mm
06:55 AM 42.3°F5.7°C 41.5°F5.3°C 97% 2.0 mph NNE3.2 kmh NNE 2.0 mph3.2 kmh 29.97 in1014.9 mb 0.00 in0.0 mm 0.00 in0.0 mm 0.25 in6.4 mm
07:00 AM 42.4°F5.8°C 41.6°F5.3°C 97% 1.0 mph NNE1.6 kmh NNE 3.0 mph4.8 kmh 29.98 in1015.2 mb 0.00 in0.0 mm 0.00 in0.0 mm 0.25 in6.4 mm
07:05 AM 42.6°F5.9°C 41.8°F5.4°C 97% 4.0 mph N6.4 kmh N 4.0 mph6.4 kmh 29.97 in1014.9 mb 0.00 in0.0 mm 0.00 in0.0 mm 0.25 in6.4 mm
07:10 AM 42.8°F6.0°C 42.0°F5.6°C 97% 3.0 mph W4.8 kmh W 7.0 mph11.3 kmh 29.97 in1014.9 mb 0.00 in0.0 mm 0.00 in0.0 mm 0.25 in6.4 mm
07:15 AM 42.8°F6.0°C 42.0°F5.6°C 97% 5.0 mph WSW8.0 kmh WSW 9.0 mph14.5 kmh 29.97 in1014.9 mb 0.00 in0.0 mm 0.00 in0.0 mm 0.25 in6.4 mm
07:20 AM 42.6°F5.9°C 41.8°F5.4°C 97% 9.0 mph WSW14.5 kmh WSW 9.0 mph14.5 kmh 29.97 in1014.9 mb 0.00 in0.0 mm 0.00 in0.0 mm 0.25 in6.4 mm
07:25 AM 42.5°F5.8°C 41.7°F5.4°C 97% 5.0 mph WSW8.0 kmh WSW 7.0 mph11.3 kmh 29.97 in1014.9 mb 0.00 in0.0 mm 0.00 in0.0 mm 0.25 in6.4 mm
07:30 AM 42.4°F5.8°C 41.6°F5.3°C 97% 3.0 mph WSW4.8 kmh WSW 8.0 mph12.9 kmh 29.98 in1015.2 mb 0.00 in0.0 mm 0.00 in0.0 mm 0.25 in6.4 mm
07:35 AM 42.4°F5.8°C 41.6°F5.3°C 97% 4.0 mph SW6.4 kmh SW 11.0 mph17.7 kmh 29.98 in1015.2 mb 0.00 in0.0 mm 0.00 in0.0 mm 0.25 in6.4 mm
07:40 AM 42.5°F5.8°C 41.7°F5.4°C 97% 6.0 mph SW9.7 kmh SW 7.0 mph11.3 kmh 30.00 in1015.9 mb 0.00 in0.0 mm 0.00 in0.0 mm 0.25 in6.4 mm
07:45 AM 42.5°F5.8°C 41.7°F5.4°C 97% 3.0 mph SW4.8 kmh SW 9.0 mph14.5 kmh 29.99 in1015.6 mb 0.00 in0.0 mm 0.00 in0.0 mm 0.25 in6.4 mm
07:50 AM 42.5°F5.8°C 41.7°F5.4°C 97% 3.0 mph SW4.8 kmh SW 9.0 mph14.5 kmh 29.99 in1015.6 mb 0.00 in0.0 mm 0.00 in0.0 mm 0.25 in6.4 mm
07:55 AM 42.5°F5.8°C 41.7°F5.4°C 97% 4.0 mph SW6.4 kmh SW 4.0 mph6.4 kmh 29.99 in1015.6 mb 0.00 in0.0 mm 0.00 in0.0 mm 0.25 in6.4 mm
08:00 AM 42.5°F5.8°C 41.7°F5.4°C 97% 3.0 mph SW4.8 kmh SW 6.0 mph9.7 kmh 29.99 in1015.6 mb 0.00 in0.0 mm 0.00 in0.0 mm 0.25 in6.4 mm
08:05 AM 42.4°F5.8°C 41.6°F5.3°C 97% 6.0 mph SW9.7 kmh SW 6.0 mph9.7 kmh 29.99 in1015.6 mb 0.00 in0.0 mm 0.00 in0.0 mm 0.25 in6.4 mm
08:10 AM 42.4°F5.8°C 41.6°F5.3°C 97% 6.0 mph SW9.7 kmh SW 7.0 mph11.3 kmh 29.99 in1015.6 mb 0.00 in0.0 mm 0.00 in0.0 mm 0.25 in6.4 mm
08:15 AM 42.3°F5.7°C 41.5°F5.3°C 97% 4.0 mph SW6.4 kmh SW 8.0 mph12.9 kmh 30.00 in1015.9 mb 0.00 in0.0 mm 0.00 in0.0 mm 0.25 in6.4 mm
08:20 AM 42.3°F5.7°C 41.5°F5.3°C 97% 3.0 mph SW4.8 kmh SW 8.0 mph12.9 kmh 30.00 in1015.9 mb 0.00 in0.0 mm 0.00 in0.0 mm 0.25 in6.4 mm
08:25 AM 42.3°F5.7°C 41.5°F5.3°C 97% 3.0 mph SW4.8 kmh SW 7.0 mph11.3 kmh 30.00 in1015.9 mb 0.00 in0.0 mm 0.00 in0.0 mm 0.25 in6.4 mm
08:30 AM 42.1°F5.6°C 41.3°F5.2°C 97% 4.0 mph SW6.4 kmh SW 7.0 mph11.3 kmh 30.00 in1015.9 mb 0.00 in0.0 mm 0.00 in0.0 mm 0.25 in6.4 mm
08:35 AM 42.0°F5.6°C 41.2°F5.1°C 97% 4.0 mph SW6.4 kmh SW 7.0 mph11.3 kmh 30.00 in1015.9 mb 0.00 in0.0 mm 0.00 in0.0 mm 0.25 in6.4 mm
08:40 AM 41.9°F5.5°C 41.1°F5.1°C 97% 4.0 mph SW6.4 kmh SW 5.0 mph8.0 kmh 30.00 in1015.9 mb 0.00 in0.0 mm 0.00 in0.0 mm 0.25 in6.4 mm
08:45 AM 41.7°F5.4°C 40.9°F4.9°C 97% 4.0 mph SW6.4 kmh SW 6.0 mph9.7 kmh 30.00 in1015.9 mb 0.00 in0.0 mm 0.00 in0.0 mm 0.25 in6.4 mm
08:50 AM 41.6°F5.3°C 40.8°F4.9°C 97% Calm Calm 6.0 mph9.7 kmh 30.00 in1015.9 mb 0.01 in0.3 mm 0.12 in3.0 mm 0.26 in6.6 mm
08:55 AM 41.6°F5.3°C 40.8°F4.9°C 97% 2.0 mph SW3.2 kmh SW 3.0 mph4.8 kmh 29.99 in1015.6 mb 0.01 in0.3 mm 0.00 in0.0 mm 0.26 in6.6 mm
09:00 AM 41.6°F5.3°C 40.8°F4.9°C 97% 2.0 mph SW3.2 kmh SW 5.0 mph8.0 kmh 29.99 in1015.6 mb 0.01 in0.3 mm 0.00 in0.0 mm 0.26 in6.6 mm
09:05 AM 41.7°F5.4°C 40.9°F4.9°C 97% 3.0 mph SW4.8 kmh SW 5.0 mph8.0 kmh 29.99 in1015.6 mb 0.01 in0.3 mm 0.00 in0.0 mm 0.26 in6.6 mm
09:10 AM 41.8°F5.4°C 41.0°F5.0°C 97% 3.0 mph SW4.8 kmh SW 4.0 mph6.4 kmh 29.99 in1015.6 mb 0.01 in0.3 mm 0.00 in0.0 mm 0.26 in6.6 mm
09:15 AM 41.8°F5.4°C 41.0°F5.0°C 97% Calm Calm 4.0 mph6.4 kmh 29.99 in1015.6 mb 0.01 in0.3 mm 0.00 in0.0 mm 0.26 in6.6 mm
09:20 AM 41.9°F5.5°C 41.1°F5.1°C 97% 3.0 mph SW4.8 kmh SW 4.0 mph6.4 kmh 29.99 in1015.6 mb 0.01 in0.3 mm 0.00 in0.0 mm 0.26 in6.6 mm
09:25 AM 42.0°F5.6°C 41.2°F5.1°C 97% Calm Calm 3.0 mph4.8 kmh 29.99 in1015.6 mb 0.01 in0.3 mm 0.00 in0.0 mm 0.26 in6.6 mm
09:30 AM 42.3°F5.7°C 41.5°F5.3°C 97% 2.0 mph SW3.2 kmh SW 3.0 mph4.8 kmh 29.98 in1015.2 mb 0.01 in0.3 mm 0.00 in0.0 mm 0.26 in6.6 mm
09:35 AM 42.5°F5.8°C 41.7°F5.4°C 97% 2.0 mph SW3.2 kmh SW 3.0 mph4.8 kmh 29.98 in1015.2 mb 0.01 in0.3 mm 0.00 in0.0 mm 0.26 in6.6 mm
09:40 AM 42.8°F6.0°C 42.0°F5.6°C 97% 1.0 mph SW1.6 kmh SW 3.0 mph4.8 kmh 29.98 in1015.2 mb 0.01 in0.3 mm 0.00 in0.0 mm 0.26 in6.6 mm
09:45 AM 43.0°F6.1°C 42.2°F5.7°C 97% 2.0 mph SW3.2 kmh SW 3.0 mph4.8 kmh 29.98 in1015.2 mb 0.01 in0.3 mm 0.00 in0.0 mm 0.26 in6.6 mm
09:50 AM 43.3°F6.3°C 42.5°F5.8°C 97% 2.0 mph SW3.2 kmh SW 3.0 mph4.8 kmh 29.98 in1015.2 mb 0.01 in0.3 mm 0.00 in0.0 mm 0.26 in6.6 mm
09:55 AM 43.2°F6.2°C 42.4°F5.8°C 97% 2.0 mph SW3.2 kmh SW 6.0 mph9.7 kmh 29.98 in1015.2 mb 0.00 in0.0 mm 0.00 in0.0 mm 0.26 in6.6 mm
10:00 AM 43.7°F6.5°C 42.9°F6.1°C 97% 3.0 mph SW4.8 kmh SW 6.0 mph9.7 kmh 29.97 in1014.9 mb 0.00 in0.0 mm 0.00 in0.0 mm 0.26 in6.6 mm
10:05 AM 43.8°F6.6°C 43.0°F6.1°C 97% Calm Calm 6.0 mph9.7 kmh 29.97 in1014.9 mb 0.00 in0.0 mm 0.00 in0.0 mm 0.26 in6.6 mm
10:10 AM 44.4°F6.9°C 43.6°F6.4°C 97% 6.0 mph SW9.7 kmh SW 6.0 mph9.7 kmh 29.96 in1014.6 mb 0.00 in0.0 mm 0.00 in0.0 mm 0.26 in6.6 mm
10:15 AM 44.7°F7.1°C 43.9°F6.6°C 97% Calm Calm 6.0 mph9.7 kmh 29.96 in1014.6 mb 0.00 in0.0 mm 0.00 in0.0 mm 0.26 in6.6 mm
10:20 AM 45.1°F7.3°C 44.3°F6.8°C 97% 2.0 mph SW3.2 kmh SW 6.0 mph9.7 kmh 29.96 in1014.6 mb 0.00 in0.0 mm 0.00 in0.0 mm 0.26 in6.6 mm
10:25 AM 45.4°F7.4°C 44.6°F7.0°C 97% 2.0 mph SW3.2 kmh SW 4.0 mph6.4 kmh 29.96 in1014.6 mb 0.00 in0.0 mm 0.00 in0.0 mm 0.26 in6.6 mm
10:30 AM 45.7°F7.6°C 44.9°F7.2°C 97% 2.0 mph SW3.2 kmh SW 4.0 mph6.4 kmh 29.96 in1014.6 mb 0.00 in0.0 mm 0.00 in0.0 mm 0.26 in6.6 mm
10:35 AM 45.7°F7.6°C 44.6°F7.0°C 96% 3.0 mph SW4.8 kmh SW 6.0 mph9.7 kmh 29.95 in1014.2 mb 0.00 in0.0 mm 0.00 in0.0 mm 0.26 in6.6 mm
10:40 AM 45.6°F7.6°C 44.5°F6.9°C 96% Calm Calm 5.0 mph8.0 kmh 29.95 in1014.2 mb 0.00 in0.0 mm 0.00 in0.0 mm 0.26 in6.6 mm
10:45 AM 46.0°F7.8°C 44.9°F7.2°C 96% 5.0 mph SW8.0 kmh SW 5.0 mph8.0 kmh 29.95 in1014.2 mb 0.00 in0.0 mm 0.00 in0.0 mm 0.26 in6.6 mm
10:50 AM 46.1°F7.8°C 44.8°F7.1°C 95% 3.0 mph SW4.8 kmh SW 7.0 mph11.3 kmh 29.95 in1014.2 mb 0.00 in0.0 mm 0.00 in0.0 mm 0.26 in6.6 mm
10:55 AM 46.5°F8.1°C 45.2°F7.3°C 95% 5.0 mph S8.0 kmh S 8.0 mph12.9 kmh 29.95 in1014.2 mb 0.00 in0.0 mm 0.00 in0.0 mm 0.26 in6.6 mm
11:00 AM 47.0°F8.3°C 45.7°F7.6°C 95% 1.0 mph S1.6 kmh S 8.0 mph12.9 kmh 29.93 in1013.5 mb 0.00 in0.0 mm 0.00 in0.0 mm 0.26 in6.6 mm
11:05 AM 46.9°F8.3°C 45.3°F7.4°C 94% 1.0 mph S1.6 kmh S 8.0 mph12.9 kmh 29.93 in1013.5 mb 0.00 in0.0 mm 0.00 in0.0 mm 0.26 in6.6 mm
11:10 AM 47.4°F8.6°C 45.8°F7.7°C 94% 2.0 mph S3.2 kmh S 4.0 mph6.4 kmh 29.93 in1013.5 mb 0.00 in0.0 mm 0.00 in0.0 mm 0.26 in6.6 mm
11:15 AM 47.2°F8.4°C 45.3°F7.4°C 93% 4.0 mph S6.4 kmh S 6.0 mph9.7 kmh 29.93 in1013.5 mb 0.00 in0.0 mm 0.00 in0.0 mm 0.26 in6.6 mm
11:20 AM 47.1°F8.4°C 45.2°F7.3°C 93% Calm Calm 11.0 mph17.7 kmh 29.93 in1013.5 mb 0.00 in0.0 mm 0.00 in0.0 mm 0.26 in6.6 mm
11:25 AM 47.1°F8.4°C 44.9°F7.2°C 92% 4.0 mph SSE6.4 kmh SSE 8.0 mph12.9 kmh 29.93 in1013.5 mb 0.00 in0.0 mm 0.00 in0.0 mm 0.26 in6.6 mm
11:30 AM 47.0°F8.3°C 44.8°F7.1°C 92% 6.0 mph SSE9.7 kmh SSE 9.0 mph14.5 kmh 29.93 in1013.5 mb 0.00 in0.0 mm 0.00 in0.0 mm 0.26 in6.6 mm
11:35 AM 47.4°F8.6°C 45.5°F7.5°C 93% 5.0 mph SSE8.0 kmh SSE 9.0 mph14.5 kmh 29.92 in1013.2 mb 0.00 in0.0 mm 0.00 in0.0 mm 0.26 in6.6 mm
11:40 AM 47.2°F8.4°C 45.0°F7.2°C 92% 3.0 mph SSE4.8 kmh SSE 8.0 mph12.9 kmh 29.92 in1013.2 mb 0.00 in0.0 mm 0.00 in0.0 mm 0.26 in6.6 mm
11:45 AM 47.8°F8.8°C 45.6°F7.6°C 92% 4.0 mph SE6.4 kmh SE 8.0 mph12.9 kmh 29.92 in1013.2 mb 0.00 in0.0 mm 0.00 in0.0 mm 0.26 in6.6 mm
11:50 AM 48.0°F8.9°C 45.8°F7.7°C 92% 3.0 mph SE4.8 kmh SE 8.0 mph12.9 kmh 29.92 in1013.2 mb 0.00 in0.0 mm 0.00 in0.0 mm 0.26 in6.6 mm
11:55 AM 48.2°F9.0°C 46.0°F7.8°C 92% 2.0 mph SE3.2 kmh SE 4.0 mph6.4 kmh 29.92 in1013.2 mb 0.00 in0.0 mm 0.00 in0.0 mm 0.26 in6.6 mm
12:00 PM 48.5°F9.2°C 46.3°F7.9°C 92% 2.0 mph SSE3.2 kmh SSE 9.0 mph14.5 kmh 29.92 in1013.2 mb 0.00 in0.0 mm 0.00 in0.0 mm 0.26 in6.6 mm
12:05 PM 49.0°F9.4°C 46.8°F8.2°C 92% 2.0 mph SSE3.2 kmh SSE 9.0 mph14.5 kmh 29.92 in1013.2 mb 0.00 in0.0 mm 0.00 in0.0 mm 0.26 in6.6 mm
12:10 PM 49.6°F9.8°C 47.4°F8.6°C 92% 2.0 mph SE3.2 kmh SE 4.0 mph6.4 kmh 29.91 in1012.9 mb 0.00 in0.0 mm 0.00 in0.0 mm 0.26 in6.6 mm
12:15 PM 49.7°F9.8°C 47.2°F8.4°C 91% 2.0 mph SSE3.2 kmh SSE 9.0 mph14.5 kmh 29.91 in1012.9 mb 0.00 in0.0 mm 0.00 in0.0 mm 0.26 in6.6 mm
12:20 PM 49.9°F9.9°C 47.4°F8.6°C 91% 1.0 mph SSE1.6 kmh SSE 9.0 mph14.5 kmh 29.91 in1012.9 mb 0.00 in0.0 mm 0.00 in0.0 mm 0.26 in6.6 mm
12:25 PM 49.8°F9.9°C 47.3°F8.5°C 91% 4.0 mph SE6.4 kmh SE 6.0 mph9.7 kmh 29.91 in1012.9 mb 0.00 in0.0 mm 0.00 in0.0 mm 0.26 in6.6 mm
12:30 PM 49.9°F9.9°C 47.4°F8.6°C 91% 3.0 mph SE4.8 kmh SE 8.0 mph12.9 kmh 29.91 in1012.9 mb 0.00 in0.0 mm 0.00 in0.0 mm 0.26 in6.6 mm
12:35 PM 50.4°F10.2°C 47.9°F8.8°C 91% 7.0 mph SE11.3 kmh SE 9.0 mph14.5 kmh 29.91 in1012.9 mb 0.00 in0.0 mm 0.00 in0.0 mm 0.26 in6.6 mm
12:40 PM 50.4°F10.2°C 47.6°F8.7°C 90% 8.0 mph SSE12.9 kmh SSE 10.0 mph16.1 kmh 29.90 in1012.5 mb 0.00 in0.0 mm 0.00 in0.0 mm 0.26 in6.6 mm
12:45 PM 50.7°F10.4°C 47.9°F8.8°C 90% 9.0 mph SSE14.5 kmh SSE 11.0 mph17.7 kmh 29.90 in1012.5 mb 0.00 in0.0 mm 0.00 in0.0 mm 0.26 in6.6 mm
12:50 PM 51.0°F10.6°C 48.2°F9.0°C 90% 10.0 mph SE16.1 kmh SE 12.0 mph19.3 kmh 29.89 in1012.2 mb 0.00 in0.0 mm 0.00 in0.0 mm 0.26 in6.6 mm
12:55 PM 51.0°F10.6°C 48.2°F9.0°C 90% 4.0 mph SE6.4 kmh SE 9.0 mph14.5 kmh 29.89 in1012.2 mb 0.00 in0.0 mm 0.00 in0.0 mm 0.26 in6.6 mm
01:00 PM 51.3°F10.7°C 48.5°F9.2°C 90% 6.0 mph S9.7 kmh S 14.0 mph22.5 kmh 29.89 in1012.2 mb 0.00 in0.0 mm 0.00 in0.0 mm 0.26 in6.6 mm
01:05 PM 51.5°F10.8°C 48.7°F9.3°C 90% 4.0 mph SE6.4 kmh SE 14.0 mph22.5 kmh 29.89 in1012.2 mb 0.00 in0.0 mm 0.00 in0.0 mm 0.26 in6.6 mm
01:10 PM 51.8°F11.0°C 49.0°F9.4°C 90% 2.0 mph SSE3.2 kmh SSE 8.0 mph12.9 kmh 29.89 in1012.2 mb 0.00 in0.0 mm 0.00 in0.0 mm 0.26 in6.6 mm
01:15 PM 52.4°F11.3°C 49.6°F9.8°C 90% 5.0 mph SE8.0 kmh SE 12.0 mph19.3 kmh 29.88 in1011.9 mb 0.00 in0.0 mm 0.00 in0.0 mm 0.26 in6.6 mm
01:20 PM 52.4°F11.3°C 49.3°F9.6°C 89% 6.0 mph ESE9.7 kmh ESE 12.0 mph19.3 kmh 29.88 in1011.9 mb 0.00 in0.0 mm 0.00 in0.0 mm 0.26 in6.6 mm
01:25 PM 52.6°F11.4°C 49.2°F9.6°C 88% 7.0 mph SE11.3 kmh SE 13.0 mph20.9 kmh 29.88 in1011.9 mb 0.00 in0.0 mm 0.00 in0.0 mm 0.26 in6.6 mm
01:30 PM 52.8°F11.6°C 49.7°F9.8°C 89% 9.0 mph ESE14.5 kmh ESE 14.0 mph22.5 kmh 29.88 in1011.9 mb 0.00 in0.0 mm 0.00 in0.0 mm 0.26 in6.6 mm
01:35 PM 53.0°F11.7°C 49.2°F9.6°C 87% 9.0 mph SSE14.5 kmh SSE 14.0 mph22.5 kmh 29.87 in1011.5 mb 0.00 in0.0 mm 0.00 in0.0 mm 0.26 in6.6 mm
01:40 PM 53.4°F11.9°C 49.9°F9.9°C 88% 5.0 mph SSE8.0 kmh SSE 7.0 mph11.3 kmh 29.87 in1011.5 mb 0.00 in0.0 mm 0.00 in0.0 mm 0.26 in6.6 mm
01:45 PM 53.8°F12.1°C 50.0°F10.0°C 87% 5.0 mph SE8.0 kmh SE 12.0 mph19.3 kmh 29.87 in1011.5 mb 0.00 in0.0 mm 0.00 in0.0 mm 0.26 in6.6 mm
01:50 PM 53.9°F12.2°C 50.1°F10.1°C 87% 11.0 mph S17.7 kmh S 12.0 mph19.3 kmh 29.86 in1011.2 mb 0.00 in0.0 mm 0.00 in0.0 mm 0.26 in6.6 mm
01:55 PM 54.1°F12.3°C 50.3°F10.2°C 87% 9.0 mph SSE14.5 kmh SSE 9.0 mph14.5 kmh 29.87 in1011.5 mb 0.00 in0.0 mm 0.00 in0.0 mm 0.26 in6.6 mm
02:00 PM 53.9°F12.2°C 50.1°F10.1°C 87% 3.0 mph SSE4.8 kmh SSE 9.0 mph14.5 kmh 29.86 in1011.2 mb 0.00 in0.0 mm 0.00 in0.0 mm 0.26 in6.6 mm
02:05 PM 54.1°F12.3°C 50.3°F10.2°C 87% 8.0 mph SE12.9 kmh SE 10.0 mph16.1 kmh 29.86 in1011.2 mb 0.00 in0.0 mm 0.00 in0.0 mm 0.26 in6.6 mm
02:10 PM 54.3°F12.4°C 50.5°F10.3°C 87% 4.0 mph SE6.4 kmh SE 9.0 mph14.5 kmh 29.87 in1011.5 mb 0.00 in0.0 mm 0.00 in0.0 mm 0.26 in6.6 mm
02:15 PM 54.5°F12.5°C 50.4°F10.2°C 86% 2.0 mph SSE3.2 kmh SSE 9.0 mph14.5 kmh 29.86 in1011.2 mb 0.00 in0.0 mm 0.00 in0.0 mm 0.26 in6.6 mm
02:20 PM 54.4°F12.4°C 50.3°F10.2°C 86% 4.0 mph SE6.4 kmh SE 9.0 mph14.5 kmh 29.86 in1011.2 mb 0.00 in0.0 mm 0.00 in0.0 mm 0.26 in6.6 mm
02:25 PM 54.6°F12.6°C 50.8°F10.4°C 87% 5.0 mph SE8.0 kmh SE 8.0 mph12.9 kmh 29.86 in1011.2 mb 0.00 in0.0 mm 0.00 in0.0 mm 0.26 in6.6 mm
02:30 PM 54.8°F12.7°C 50.7°F10.4°C 86% 11.0 mph S17.7 kmh S 17.0 mph27.4 kmh 29.86 in1011.2 mb 0.00 in0.0 mm 0.00 in0.0 mm 0.26 in6.6 mm
02:35 PM 55.2°F12.9°C 51.1°F10.6°C 86% 7.0 mph SE11.3 kmh SE 17.0 mph27.4 kmh 29.86 in1011.2 mb 0.00 in0.0 mm 0.00 in0.0 mm 0.26 in6.6 mm
02:40 PM 55.6°F13.1°C 51.2°F10.7°C 85% 4.0 mph S6.4 kmh S 11.0 mph17.7 kmh 29.85 in1010.8 mb 0.00 in0.0 mm 0.00 in0.0 mm 0.26 in6.6 mm
02:45 PM 55.9°F13.3°C 51.8°F11.0°C 86% 2.0 mph SE3.2 kmh SE 12.0 mph19.3 kmh 29.85 in1010.8 mb 0.00 in0.0 mm 0.00 in0.0 mm 0.26 in6.6 mm
02:50 PM 56.2°F13.4°C 51.8°F11.0°C 85% 3.0 mph SE4.8 kmh SE 12.0 mph19.3 kmh 29.85 in1010.8 mb 0.00 in0.0 mm 0.00 in0.0 mm 0.26 in6.6 mm
02:55 PM 56.2°F13.4°C 51.8°F11.0°C 85% 3.0 mph SE4.8 kmh SE 8.0 mph12.9 kmh 29.84 in1010.5 mb 0.00 in0.0 mm 0.00 in0.0 mm 0.26 in6.6 mm
03:00 PM 56.9°F13.8°C 52.1°F11.2°C 84% 3.0 mph SSE4.8 kmh SSE 8.0 mph12.9 kmh 29.85 in1010.8 mb 0.00 in0.0 mm 0.00 in0.0 mm 0.26 in6.6 mm
03:05 PM 57.1°F13.9°C 52.0°F11.1°C 83% 3.0 mph SE4.8 kmh SE 8.0 mph12.9 kmh 29.85 in1010.8 mb 0.00 in0.0 mm 0.00 in0.0 mm 0.26 in6.6 mm
03:10 PM 58.1°F14.5°C 53.0°F11.7°C 83% 2.0 mph SE3.2 kmh SE 3.0 mph4.8 kmh 29.84 in1010.5 mb 0.00 in0.0 mm 0.00 in0.0 mm 0.26 in6.6 mm
03:15 PM 58.4°F14.7°C 52.6°F11.4°C 81% 2.0 mph SE3.2 kmh SE 8.0 mph12.9 kmh 29.84 in1010.5 mb 0.00 in0.0 mm 0.00 in0.0 mm 0.26 in6.6 mm
03:20 PM 58.5°F14.7°C 52.7°F11.5°C 81% 3.0 mph SE4.8 kmh SE 10.0 mph16.1 kmh 29.85 in1010.8 mb 0.00 in0.0 mm 0.00 in0.0 mm 0.26 in6.6 mm
03:25 PM 57.6°F14.2°C 52.5°F11.4°C 83% 2.0 mph SE3.2 kmh SE 3.0 mph4.8 kmh 29.84 in1010.5 mb 0.00 in0.0 mm 0.00 in0.0 mm 0.26 in6.6 mm
03:30 PM 57.8°F14.3°C 52.7°F11.5°C 83% 1.0 mph SE1.6 kmh SE 7.0 mph11.3 kmh 29.84 in1010.5 mb 0.00 in0.0 mm 0.00 in0.0 mm 0.26 in6.6 mm
03:35 PM 58.0°F14.4°C 52.5°F11.4°C 82% 2.0 mph SE3.2 kmh SE 7.0 mph11.3 kmh 29.84 in1010.5 mb 0.00 in0.0 mm 0.00 in0.0 mm 0.26 in6.6 mm
03:40 PM 57.8°F14.3°C 52.4°F11.3°C 82% 3.0 mph SE4.8 kmh SE 5.0 mph8.0 kmh 29.84 in1010.5 mb 0.00 in0.0 mm 0.00 in0.0 mm 0.26 in6.6 mm
03:45 PM 57.5°F14.2°C 52.1°F11.2°C 82% 4.0 mph SE6.4 kmh SE 5.0 mph8.0 kmh 29.84 in1010.5 mb 0.00 in0.0 mm 0.00 in0.0 mm 0.26 in6.6 mm
03:50 PM 58.1°F14.5°C 52.3°F11.3°C 81% 7.0 mph SSE11.3 kmh SSE 9.0 mph14.5 kmh 29.84 in1010.5 mb 0.00 in0.0 mm 0.00 in0.0 mm 0.26 in6.6 mm
03:55 PM 58.9°F14.9°C 53.1°F11.7°C 81% 8.0 mph ESE12.9 kmh ESE 9.0 mph14.5 kmh 29.84 in1010.5 mb 0.00 in0.0 mm 0.00 in0.0 mm 0.26 in6.6 mm
04:00 PM 59.5°F15.3°C 53.7°F12.1°C 81% 4.0 mph SSE6.4 kmh SSE 11.0 mph17.7 kmh 29.84 in1010.5 mb 0.00 in0.0 mm 0.00 in0.0 mm 0.26 in6.6 mm
04:05 PM 59.6°F15.3°C 53.4°F11.9°C 80% 8.0 mph SSE12.9 kmh SSE 12.0 mph19.3 kmh 29.84 in1010.5 mb 0.00 in0.0 mm 0.00 in0.0 mm 0.26 in6.6 mm
04:10 PM 59.8°F15.4°C 53.6°F12.0°C 80% 5.0 mph SE8.0 kmh SE 7.0 mph11.3 kmh 29.84 in1010.5 mb 0.00 in0.0 mm 0.00 in0.0 mm 0.26 in6.6 mm
04:15 PM 59.4°F15.2°C 53.2°F11.8°C 80% 4.0 mph SE6.4 kmh SE 9.0 mph14.5 kmh 29.84 in1010.5 mb 0.00 in0.0 mm 0.00 in0.0 mm 0.26 in6.6 mm
04:20 PM 59.3°F15.2°C 53.5°F11.9°C 81% 1.0 mph ESE1.6 kmh ESE 9.0 mph14.5 kmh 29.84 in1010.5 mb 0.00 in0.0 mm 0.00 in0.0 mm 0.26 in6.6 mm
04:25 PM 59.9°F15.5°C 54.1°F12.3°C 81% 4.0 mph SE6.4 kmh SE 5.0 mph8.0 kmh 29.84 in1010.5 mb 0.00 in0.0 mm 0.00 in0.0 mm 0.26 in6.6 mm
04:30 PM 60.2°F15.7°C 54.0°F12.2°C 80% 2.0 mph SE3.2 kmh SE 9.0 mph14.5 kmh 29.84 in1010.5 mb 0.00 in0.0 mm 0.00 in0.0 mm 0.26 in6.6 mm
04:35 PM 59.8°F15.4°C 54.0°F12.2°C 81% 7.0 mph SE11.3 kmh SE 9.0 mph14.5 kmh 29.84 in1010.5 mb 0.00 in0.0 mm 0.00 in0.0 mm 0.26 in6.6 mm
04:40 PM 59.7°F15.4°C 54.2°F12.3°C 82% 5.0 mph SE8.0 kmh SE 5.0 mph8.0 kmh 29.84 in1010.5 mb 0.00 in0.0 mm 0.00 in0.0 mm 0.26 in6.6 mm
04:45 PM 60.2°F15.7°C 54.4°F12.4°C 81% 3.0 mph SE4.8 kmh SE 7.0 mph11.3 kmh 29.84 in1010.5 mb 0.00 in0.0 mm 0.00 in0.0 mm 0.26 in6.6 mm
04:50 PM 60.5°F15.8°C 54.7°F12.6°C 81% 2.0 mph SE3.2 kmh SE 7.0 mph11.3 kmh 29.84 in1010.5 mb 0.00 in0.0 mm 0.00 in0.0 mm 0.26 in6.6 mm
04:55 PM 60.5°F15.8°C 54.3°F12.4°C 80% 3.0 mph SE4.8 kmh SE 7.0 mph11.3 kmh 29.84 in1010.5 mb 0.00 in0.0 mm 0.00 in0.0 mm 0.26 in6.6 mm
05:00 PM 60.4°F15.8°C 54.2°F12.3°C 80% 1.0 mph SSE1.6 kmh SSE 8.0 mph12.9 kmh 29.84 in1010.5 mb 0.00 in0.0 mm 0.00 in0.0 mm 0.26 in6.6 mm
05:05 PM 60.1°F15.6°C 54.3°F12.4°C 81% 3.0 mph SE4.8 kmh SE 8.0 mph12.9 kmh 29.83 in1010.2 mb 0.00 in0.0 mm 0.00 in0.0 mm 0.26 in6.6 mm
05:10 PM 60.1°F15.6°C 54.6°F12.6°C 82% 5.0 mph SE8.0 kmh SE 5.0 mph8.0 kmh 29.83 in1010.2 mb 0.00 in0.0 mm 0.00 in0.0 mm 0.26 in6.6 mm
05:15 PM 59.9°F15.5°C 54.4°F12.4°C 82% 1.0 mph SE1.6 kmh SE 7.0 mph11.3 kmh 29.83 in1010.2 mb 0.00 in0.0 mm 0.00 in0.0 mm 0.26 in6.6 mm
05:20 PM 59.9°F15.5°C 54.4°F12.4°C 82% 3.0 mph SE4.8 kmh SE 7.0 mph11.3 kmh 29.83 in1010.2 mb 0.00 in0.0 mm 0.00 in0.0 mm 0.26 in6.6 mm
05:25 PM 60.0°F15.6°C 54.5°F12.5°C 82% Calm Calm 2.0 mph3.2 kmh 29.83 in1010.2 mb 0.00 in0.0 mm 0.00 in0.0 mm 0.26 in6.6 mm
05:30 PM 59.9°F15.5°C 54.4°F12.4°C 82% Calm Calm 4.0 mph6.4 kmh 29.84 in1010.5 mb 0.00 in0.0 mm 0.00 in0.0 mm 0.26 in6.6 mm
05:35 PM 59.7°F15.4°C 54.5°F12.5°C 83% 3.0 mph SE4.8 kmh SE 7.0 mph11.3 kmh 29.83 in1010.2 mb 0.00 in0.0 mm 0.00 in0.0 mm 0.26 in6.6 mm
05:40 PM 59.7°F15.4°C 54.5°F12.5°C 83% 1.0 mph SE1.6 kmh SE 4.0 mph6.4 kmh 29.84 in1010.5 mb 0.00 in0.0 mm 0.00 in0.0 mm 0.26 in6.6 mm
05:45 PM 59.7°F15.4°C 54.5°F12.5°C 83% 2.0 mph SE3.2 kmh SE 8.0 mph12.9 kmh 29.84 in1010.5 mb 0.00 in0.0 mm 0.00 in0.0 mm 0.26 in6.6 mm
05:50 PM 59.6°F15.3°C 54.4°F12.4°C 83% 4.0 mph SE6.4 kmh SE 8.0 mph12.9 kmh 29.84 in1010.5 mb 0.00 in0.0 mm 0.00 in0.0 mm 0.26 in6.6 mm
05:55 PM 59.5°F15.3°C 54.3°F12.4°C 83% 4.0 mph SE6.4 kmh SE 4.0 mph6.4 kmh 29.84 in1010.5 mb 0.00 in0.0 mm 0.00 in0.0 mm 0.26 in6.6 mm
06:00 PM 59.5°F15.3°C 54.3°F12.4°C 83% 3.0 mph SE4.8 kmh SE 5.0 mph8.0 kmh 29.84 in1010.5 mb 0.00 in0.0 mm 0.00 in0.0 mm 0.26 in6.6 mm
06:05 PM 59.4°F15.2°C 54.2°F12.3°C 83% 2.0 mph SE3.2 kmh SE 7.0 mph11.3 kmh 29.85 in1010.8 mb 0.00 in0.0 mm 0.00 in0.0 mm 0.26 in6.6 mm
06:10 PM 59.3°F15.2°C 54.5°F12.5°C 84% 3.0 mph SE4.8 kmh SE 7.0 mph11.3 kmh 29.85 in1010.8 mb 0.00 in0.0 mm 0.00 in0.0 mm 0.26 in6.6 mm
06:15 PM 59.1°F15.1°C 54.0°F12.2°C 83% 1.0 mph SE1.6 kmh SE 8.0 mph12.9 kmh 29.84 in1010.5 mb 0.00 in0.0 mm 0.00 in0.0 mm 0.26 in6.6 mm
06:20 PM 59.0°F15.0°C 54.2°F12.3°C 84% Calm Calm 8.0 mph12.9 kmh 29.84 in1010.5 mb 0.00 in0.0 mm 0.00 in0.0 mm 0.26 in6.6 mm
06:25 PM 58.9°F14.9°C 54.1°F12.3°C 84% 1.0 mph SE1.6 kmh SE 1.0 mph1.6 kmh 29.85 in1010.8 mb 0.00 in0.0 mm 0.00 in0.0 mm 0.26 in6.6 mm
06:30 PM 58.8°F14.9°C 54.0°F12.2°C 84% Calm Calm 8.0 mph12.9 kmh 29.85 in1010.8 mb 0.00 in0.0 mm 0.00 in0.0 mm 0.26 in6.6 mm
06:35 PM 58.7°F14.8°C 53.9°F12.2°C 84% 3.0 mph SE4.8 kmh SE 8.0 mph12.9 kmh 29.84 in1010.5 mb 0.00 in0.0 mm 0.00 in0.0 mm 0.26 in6.6 mm
06:40 PM 58.6°F14.8°C 53.8°F12.1°C 84% 2.0 mph SE3.2 kmh SE 5.0 mph8.0 kmh 29.85 in1010.8 mb 0.00 in0.0 mm 0.00 in0.0 mm 0.26 in6.6 mm
06:45 PM 58.6°F14.8°C 53.8°F12.1°C 84% 1.0 mph SE1.6 kmh SE 7.0 mph11.3 kmh 29.85 in1010.8 mb 0.00 in0.0 mm 0.00 in0.0 mm 0.26 in6.6 mm
06:50 PM 58.5°F14.7°C 53.7°F12.1°C 84% 3.0 mph SE4.8 kmh SE 8.0 mph12.9 kmh 29.85 in1010.8 mb 0.00 in0.0 mm 0.00 in0.0 mm 0.26 in6.6 mm
06:55 PM 58.4°F14.7°C 53.6°F12.0°C 84% 1.0 mph SE1.6 kmh SE 9.0 mph14.5 kmh 29.85 in1010.8 mb 0.00 in0.0 mm 0.00 in0.0 mm 0.26 in6.6 mm
07:00 PM 58.4°F14.7°C 53.6°F12.0°C 84% 1.0 mph SE1.6 kmh SE 9.0 mph14.5 kmh 29.86 in1011.2 mb 0.00 in0.0 mm 0.00 in0.0 mm 0.26 in6.6 mm
07:05 PM 58.4°F14.7°C 53.6°F12.0°C 84% Calm Calm 9.0 mph14.5 kmh 29.86 in1011.2 mb 0.00 in0.0 mm 0.00 in0.0 mm 0.26 in6.6 mm
07:10 PM 58.3°F14.6°C 53.5°F11.9°C 84% 2.0 mph SE3.2 kmh SE 8.0 mph12.9 kmh 29.86 in1011.2 mb 0.00 in0.0 mm 0.00 in0.0 mm 0.26 in6.6 mm
07:15 PM 58.3°F14.6°C 53.5°F11.9°C 84% Calm Calm 8.0 mph12.9 kmh 29.86 in1011.2 mb 0.00 in0.0 mm 0.00 in0.0 mm 0.26 in6.6 mm
07:20 PM 58.2°F14.6°C 53.4°F11.9°C 84% 2.0 mph SSE3.2 kmh SSE 8.0 mph12.9 kmh 29.86 in1011.2 mb 0.00 in0.0 mm 0.00 in0.0 mm 0.26 in6.6 mm
07:25 PM 58.1°F14.5°C 53.3°F11.8°C 84% 4.0 mph SE6.4 kmh SE 8.0 mph12.9 kmh 29.86 in1011.2 mb 0.00 in0.0 mm 0.00 in0.0 mm 0.26 in6.6 mm
07:30 PM 58.1°F14.5°C 53.3°F11.8°C 84% 3.0 mph SSE4.8 kmh SSE 8.0 mph12.9 kmh 29.86 in1011.2 mb 0.00 in0.0 mm 0.00 in0.0 mm 0.26 in6.6 mm
07:35 PM 58.2°F14.6°C 53.4°F11.9°C 84% 2.0 mph SE3.2 kmh SE 8.0 mph12.9 kmh 29.86 in1011.2 mb 0.00 in0.0 mm 0.00 in0.0 mm 0.26 in6.6 mm
07:40 PM 58.2°F14.6°C 53.4°F11.9°C 84% 4.0 mph SE6.4 kmh SE 10.0 mph16.1 kmh 29.86 in1011.2 mb 0.00 in0.0 mm 0.00 in0.0 mm 0.26 in6.6 mm
07:45 PM 58.2°F14.6°C 53.4°F11.9°C 84% 4.0 mph SSE6.4 kmh SSE 10.0 mph16.1 kmh 29.86 in1011.2 mb 0.00 in0.0 mm 0.00 in0.0 mm 0.26 in6.6 mm
07:50 PM 58.2°F14.6°C 53.4°F11.9°C 84% 3.0 mph SSE4.8 kmh SSE 10.0 mph16.1 kmh 29.86 in1011.2 mb 0.00 in0.0 mm 0.00 in0.0 mm 0.26 in6.6 mm
07:55 PM 58.3°F14.6°C 53.2°F11.8°C 83% 4.0 mph SSE6.4 kmh SSE 9.0 mph14.5 kmh 29.86 in1011.2 mb 0.00 in0.0 mm 0.00 in0.0 mm 0.26 in6.6 mm
08:00 PM 58.2°F14.6°C 53.1°F11.7°C 83% 8.0 mph SSE12.9 kmh SSE 11.0 mph17.7 kmh 29.86 in1011.2 mb 0.00 in0.0 mm 0.00 in0.0 mm 0.26 in6.6 mm
08:05 PM 58.2°F14.6°C 53.1°F11.7°C 83% 5.0 mph SE8.0 kmh SE 11.0 mph17.7 kmh 29.86 in1011.2 mb 0.00 in0.0 mm 0.00 in0.0 mm 0.26 in6.6 mm
08:10 PM 58.3°F14.6°C 53.2°F11.8°C 83% 8.0 mph SE12.9 kmh SE 9.0 mph14.5 kmh 29.86 in1011.2 mb 0.00 in0.0 mm 0.00 in0.0 mm 0.26 in6.6 mm
08:15 PM 58.3°F14.6°C 53.2°F11.8°C 83% 6.0 mph SE9.7 kmh SE 11.0 mph17.7 kmh 29.87 in1011.5 mb 0.00 in0.0 mm 0.00 in0.0 mm 0.26 in6.6 mm
08:20 PM 58.4°F14.7°C 52.9°F11.6°C 82% 7.0 mph SSE11.3 kmh SSE 12.0 mph19.3 kmh 29.86 in1011.2 mb 0.00 in0.0 mm 0.00 in0.0 mm 0.26 in6.6 mm
08:25 PM 58.6°F14.8°C 53.1°F11.7°C 82% 5.0 mph SSE8.0 kmh SSE 6.0 mph9.7 kmh 29.86 in1011.2 mb 0.00 in0.0 mm 0.00 in0.0 mm 0.26 in6.6 mm
08:30 PM 58.5°F14.7°C 53.0°F11.7°C 82% 2.0 mph SSE3.2 kmh SSE 12.0 mph19.3 kmh 29.87 in1011.5 mb 0.00 in0.0 mm 0.00 in0.0 mm 0.26 in6.6 mm
08:35 PM 58.6°F14.8°C 53.1°F11.7°C 82% 8.0 mph SSE12.9 kmh SSE 12.0 mph19.3 kmh 29.87 in1011.5 mb 0.00 in0.0 mm 0.00 in0.0 mm 0.26 in6.6 mm
08:40 PM 58.5°F14.7°C 53.0°F11.7°C 82% 3.0 mph S4.8 kmh S 10.0 mph16.1 kmh 29.87 in1011.5 mb 0.00 in0.0 mm 0.00 in0.0 mm 0.26 in6.6 mm
08:45 PM 58.4°F14.7°C 52.9°F11.6°C 82% 4.0 mph SSE6.4 kmh SSE 12.0 mph19.3 kmh 29.87 in1011.5 mb 0.00 in0.0 mm 0.00 in0.0 mm 0.26 in6.6 mm
08:50 PM 58.4°F14.7°C 52.9°F11.6°C 82% 3.0 mph SSE4.8 kmh SSE 12.0 mph19.3 kmh 29.88 in1011.9 mb 0.00 in0.0 mm 0.00 in0.0 mm 0.26 in6.6 mm
08:55 PM 58.2°F14.6°C 52.7°F11.5°C 82% 1.0 mph SSE1.6 kmh SSE 5.0 mph8.0 kmh 29.88 in1011.9 mb 0.00 in0.0 mm 0.00 in0.0 mm 0.26 in6.6 mm
09:00 PM 58.1°F14.5°C 52.6°F11.4°C 82% 2.0 mph S3.2 kmh S 9.0 mph14.5 kmh 29.88 in1011.9 mb 0.00 in0.0 mm 0.00 in0.0 mm 0.26 in6.6 mm
09:05 PM 58.1°F14.5°C 52.6°F11.4°C 82% 8.0 mph S12.9 kmh S 10.0 mph16.1 kmh 29.88 in1011.9 mb 0.00 in0.0 mm 0.00 in0.0 mm 0.26 in6.6 mm
09:10 PM 57.9°F14.4°C 52.8°F11.6°C 83% 3.0 mph S4.8 kmh S 7.0 mph11.3 kmh 29.89 in1012.2 mb 0.00 in0.0 mm 0.00 in0.0 mm 0.26 in6.6 mm
09:15 PM 57.7°F14.3°C 52.3°F11.3°C 82% 4.0 mph SSW6.4 kmh SSW 7.0 mph11.3 kmh 29.89 in1012.2 mb 0.00 in0.0 mm 0.00 in0.0 mm 0.26 in6.6 mm
09:20 PM 57.4°F14.1°C 52.0°F11.1°C 82% 4.0 mph SSW6.4 kmh SSW 7.0 mph11.3 kmh 29.89 in1012.2 mb 0.00 in0.0 mm 0.00 in0.0 mm 0.26 in6.6 mm
09:25 PM 57.2°F14.0°C 52.1°F11.2°C 83% 2.0 mph SSW3.2 kmh SSW 3.0 mph4.8 kmh 29.89 in1012.2 mb 0.00 in0.0 mm 0.00 in0.0 mm 0.26 in6.6 mm
09:30 PM 56.9°F13.8°C 51.8°F11.0°C 83% 1.0 mph SSW1.6 kmh SSW 3.0 mph4.8 kmh 29.90 in1012.5 mb 0.00 in0.0 mm 0.00 in0.0 mm 0.26 in6.6 mm
09:35 PM 56.7°F13.7°C 51.6°F10.9°C 83% Calm Calm 3.0 mph4.8 kmh 29.90 in1012.5 mb 0.00 in0.0 mm 0.00 in0.0 mm 0.26 in6.6 mm
09:40 PM 56.4°F13.6°C 51.3°F10.7°C 83% Calm Calm 4.0 mph6.4 kmh 29.91 in1012.9 mb 0.00 in0.0 mm 0.00 in0.0 mm 0.26 in6.6 mm
09:45 PM 56.2°F13.4°C 51.4°F10.8°C 84% 2.0 mph SSW3.2 kmh SSW 4.0 mph6.4 kmh 29.90 in1012.5 mb 0.00 in0.0 mm 0.00 in0.0 mm 0.26 in6.6 mm
09:50 PM 55.9°F13.3°C 51.5°F10.8°C 85% 4.0 mph SSW6.4 kmh SSW 6.0 mph9.7 kmh 29.90 in1012.5 mb 0.00 in0.0 mm 0.00 in0.0 mm 0.26 in6.6 mm
09:55 PM 55.8°F13.2°C 51.7°F10.9°C 86% 3.0 mph SSW4.8 kmh SSW 4.0 mph6.4 kmh 29.91 in1012.9 mb 0.00 in0.0 mm 0.00 in0.0 mm 0.26 in6.6 mm
10:00 PM 55.8°F13.2°C 51.7°F10.9°C 86% 5.0 mph SW8.0 kmh SW 7.0 mph11.3 kmh 29.91 in1012.9 mb 0.00 in0.0 mm 0.00 in0.0 mm 0.26 in6.6 mm
10:05 PM 55.7°F13.2°C 51.6°F10.9°C 86% 3.0 mph SW4.8 kmh SW 8.0 mph12.9 kmh 29.91 in1012.9 mb 0.00 in0.0 mm 0.00 in0.0 mm 0.26 in6.6 mm
10:10 PM 55.8°F13.2°C 51.7°F10.9°C 86% 4.0 mph SW6.4 kmh SW 5.0 mph8.0 kmh 29.92 in1013.2 mb 0.00 in0.0 mm 0.00 in0.0 mm 0.26 in6.6 mm
10:15 PM 55.8°F13.2°C 51.7°F10.9°C 86% 3.0 mph SW4.8 kmh SW 7.0 mph11.3 kmh 29.92 in1013.2 mb 0.00 in0.0 mm 0.00 in0.0 mm 0.26 in6.6 mm
10:20 PM 55.7°F13.2°C 51.6°F10.9°C 86% 3.0 mph SW4.8 kmh SW 7.0 mph11.3 kmh 29.92 in1013.2 mb 0.00 in0.0 mm 0.00 in0.0 mm 0.26 in6.6 mm
10:25 PM 55.7°F13.2°C 51.3°F10.7°C 85% 2.0 mph SW3.2 kmh SW 4.0 mph6.4 kmh 29.92 in1013.2 mb 0.00 in0.0 mm 0.00 in0.0 mm 0.26 in6.6 mm
10:30 PM 55.5°F13.1°C 51.1°F10.6°C 85% 4.0 mph SW6.4 kmh SW 5.0 mph8.0 kmh 29.93 in1013.5 mb 0.00 in0.0 mm 0.00 in0.0 mm 0.26 in6.6 mm
10:35 PM 55.4°F13.0°C 51.3°F10.7°C 86% 2.0 mph SW3.2 kmh SW 5.0 mph8.0 kmh 29.93 in1013.5 mb 0.00 in0.0 mm 0.00 in0.0 mm 0.26 in6.6 mm
10:40 PM 55.2°F12.9°C 51.1°F10.6°C 86% 2.0 mph SW3.2 kmh SW 4.0 mph6.4 kmh 29.93 in1013.5 mb 0.00 in0.0 mm 0.00 in0.0 mm 0.26 in6.6 mm
10:45 PM 55.1°F12.8°C 51.0°F10.6°C 86% 2.0 mph SW3.2 kmh SW 4.0 mph6.4 kmh 29.93 in1013.5 mb 0.00 in0.0 mm 0.00 in0.0 mm 0.26 in6.6 mm
10:50 PM 54.9°F12.7°C 50.8°F10.4°C 86% 4.0 mph SW6.4 kmh SW 4.0 mph6.4 kmh 29.93 in1013.5 mb 0.00 in0.0 mm 0.00 in0.0 mm 0.26 in6.6 mm
10:55 PM 54.8°F12.7°C 51.0°F10.6°C 87% 2.0 mph SW3.2 kmh SW 3.0 mph4.8 kmh 29.93 in1013.5 mb 0.00 in0.0 mm 0.00 in0.0 mm 0.26 in6.6 mm
11:00 PM 54.6°F12.6°C 50.8°F10.4°C 87% 2.0 mph SW3.2 kmh SW 4.0 mph6.4 kmh 29.94 in1013.9 mb 0.00 in0.0 mm 0.00 in0.0 mm 0.26 in6.6 mm
11:05 PM 54.5°F12.5°C 50.7°F10.4°C 87% 2.0 mph SW3.2 kmh SW 4.0 mph6.4 kmh 29.94 in1013.9 mb 0.00 in0.0 mm 0.00 in0.0 mm 0.26 in6.6 mm
11:10 PM 54.4°F12.4°C 50.6°F10.3°C 87% 1.0 mph SW1.6 kmh SW 3.0 mph4.8 kmh 29.94 in1013.9 mb 0.00 in0.0 mm 0.00 in0.0 mm 0.26 in6.6 mm
11:15 PM 54.3°F12.4°C 50.5°F10.3°C 87% 1.0 mph SW1.6 kmh SW 3.0 mph4.8 kmh 29.94 in1013.9 mb 0.00 in0.0 mm 0.00 in0.0 mm 0.26 in6.6 mm
11:20 PM 54.1°F12.3°C 50.3°F10.2°C 87% 2.0 mph SW3.2 kmh SW 3.0 mph4.8 kmh 29.93 in1013.5 mb 0.00 in0.0 mm 0.00 in0.0 mm 0.26 in6.6 mm
11:25 PM 54.0°F12.2°C 50.5°F10.3°C 88% 2.0 mph SW3.2 kmh SW 3.0 mph4.8 kmh 29.93 in1013.5 mb 0.00 in0.0 mm 0.00 in0.0 mm 0.26 in6.6 mm
11:30 PM 54.0°F12.2°C 50.8°F10.4°C 89% 4.0 mph SW6.4 kmh SW 5.0 mph8.0 kmh 29.94 in1013.9 mb 0.00 in0.0 mm 0.00 in0.0 mm 0.26 in6.6 mm
11:35 PM 54.1°F12.3°C 50.9°F10.5°C 89% 3.0 mph SW4.8 kmh SW 5.0 mph8.0 kmh 29.94 in1013.9 mb 0.00 in0.0 mm 0.00 in0.0 mm 0.26 in6.6 mm
11:40 PM 54.1°F12.3°C 50.9°F10.5°C 89% 2.0 mph SW3.2 kmh SW 3.0 mph4.8 kmh 29.94 in1013.9 mb 0.00 in0.0 mm 0.00 in0.0 mm 0.26 in6.6 mm
11:45 PM 54.1°F12.3°C 51.2°F10.7°C 90% 1.0 mph SW1.6 kmh SW 4.0 mph6.4 kmh 29.95 in1014.2 mb 0.00 in0.0 mm 0.00 in0.0 mm 0.26 in6.6 mm
11:50 PM 54.1°F12.3°C 50.9°F10.5°C 89% 2.0 mph SW3.2 kmh SW 4.0 mph6.4 kmh 29.94 in1013.9 mb 0.00 in0.0 mm 0.00 in0.0 mm 0.26 in6.6 mm
11:55 PM 53.9°F12.2°C 50.7°F10.4°C 89% 2.0 mph SW3.2 kmh SW 2.0 mph3.2 kmh 29.94 in1013.9 mb 0.00 in0.0 mm 0.00 in0.0 mm 0.26 in6.6 mm